createdAt,value
2019-03-06T00:00:52.812Z,4.97
2019-03-06T00:03:01.814Z,4.96
2019-03-06T00:05:09.628Z,4.95
2019-03-06T00:07:17.823Z,4.92
2019-03-06T00:09:26.447Z,4.92
2019-03-06T00:11:34.235Z,4.89
2019-03-06T00:13:42.201Z,4.88
2019-03-06T00:15:50.331Z,4.86
2019-03-06T00:17:57.596Z,4.84
2019-03-06T00:20:06.922Z,4.81
2019-03-06T00:22:14.284Z,4.77
2019-03-06T00:24:21.279Z,4.73
2019-03-06T00:26:28.461Z,4.69
2019-03-06T00:28:36.347Z,4.68
2019-03-06T00:30:43.474Z,4.67
2019-03-06T00:32:50.548Z,4.67
2019-03-06T00:34:59.045Z,4.67
2019-03-06T00:37:06.657Z,4.64
2019-03-06T00:39:13.868Z,4.63
2019-03-06T00:41:22.709Z,4.62
2019-03-06T00:43:29.340Z,4.62
2019-03-06T00:45:37.531Z,4.63
2019-03-06T00:47:44.649Z,4.61
2019-03-06T00:49:51.891Z,4.59
2019-03-06T00:51:58.760Z,4.59
2019-03-06T00:54:05.820Z,4.60
2019-03-06T00:56:12.878Z,4.60
2019-03-06T00:58:19.994Z,4.60
2019-03-06T01:00:27.638Z,4.62
2019-03-06T01:02:34.698Z,4.63
2019-03-06T01:04:41.436Z,4.64
2019-03-06T01:06:48.922Z,4.63
2019-03-06T01:08:56.277Z,4.66
2019-03-06T01:11:03.189Z,4.67
2019-03-06T01:13:10.436Z,4.66
2019-03-06T01:15:22.008Z,4.69
2019-03-06T01:17:29.460Z,4.70
2019-03-06T01:19:36.231Z,4.70
2019-03-06T01:21:42.980Z,4.68
2019-03-06T01:23:50.395Z,4.69
2019-03-06T01:25:57.552Z,4.70
2019-03-06T01:28:05.092Z,4.71
2019-03-06T01:30:23.102Z,4.72
2019-03-06T01:32:30.061Z,4.72
2019-03-06T01:34:48.108Z,4.74
2019-03-06T01:37:08.774Z,4.77
2019-03-06T01:39:24.853Z,4.80
2019-03-06T01:41:36.282Z,4.83
2019-03-06T01:43:44.789Z,4.82
2019-03-06T01:45:51.717Z,4.83
2019-03-06T01:47:58.776Z,4.85
2019-03-06T01:50:10.155Z,4.87
2019-03-06T01:52:17.174Z,4.87
2019-03-06T01:54:24.939Z,4.94
2019-03-06T01:56:32.486Z,5.02
2019-03-06T01:58:40.045Z,4.99
2019-03-06T02:00:47.043Z,5.05
2019-03-06T02:02:54.348Z,5.03
2019-03-06T02:05:01.451Z,5.03
2019-03-06T02:07:11.518Z,5.01
2019-03-06T02:09:21.732Z,5.01
2019-03-06T02:11:28.846Z,5.01
2019-03-06T02:13:35.655Z,5.03
2019-03-06T02:15:42.916Z,5.02
2019-03-06T02:17:50.203Z,5.03
2019-03-06T02:19:58.189Z,5.05
2019-03-06T02:22:04.913Z,5.08
2019-03-06T02:24:11.833Z,5.07
2019-03-06T02:26:19.037Z,5.08
2019-03-06T02:28:26.196Z,5.10
2019-03-06T02:30:33.179Z,5.14
2019-03-06T02:32:39.983Z,5.14
2019-03-06T02:34:47.464Z,5.15
2019-03-06T02:36:55.519Z,5.17
2019-03-06T02:39:02.351Z,5.18
2019-03-06T02:41:11.055Z,5.19
2019-03-06T02:43:18.553Z,5.27
2019-03-06T02:45:25.688Z,5.24
2019-03-06T02:47:32.935Z,5.30
2019-03-06T02:49:39.612Z,5.28
2019-03-06T02:51:47.404Z,5.28
2019-03-06T02:53:54.317Z,5.28
2019-03-06T02:56:01.529Z,5.28
2019-03-06T02:58:19.444Z,5.29
2019-03-06T03:00:35.155Z,5.30
2019-03-06T03:02:47.185Z,5.30
2019-03-06T03:04:56.121Z,5.32
2019-03-06T03:07:04.672Z,5.32
2019-03-06T03:09:20.739Z,5.37
2019-03-06T03:11:27.809Z,5.36
2019-03-06T03:13:35.113Z,5.36
2019-03-06T03:15:42.047Z,5.34
2019-03-06T03:17:48.904Z,5.32
2019-03-06T03:19:56.200Z,5.29
2019-03-06T03:22:03.085Z,5.30
2019-03-06T03:24:10.592Z,5.28
2019-03-06T03:26:17.498Z,5.26
2019-03-06T03:28:24.432Z,5.28
2019-03-06T03:30:32.799Z,5.26
2019-03-06T03:32:39.617Z,5.27
2019-03-06T03:34:47.205Z,5.24
2019-03-06T03:36:54.314Z,5.24
2019-03-06T03:39:01.363Z,5.21
2019-03-06T03:41:09.523Z,5.18
2019-03-06T03:43:16.789Z,5.18
2019-03-06T03:45:24.514Z,5.17
2019-03-06T03:47:32.724Z,5.17
2019-03-06T03:49:42.537Z,5.20
2019-03-06T03:51:49.136Z,5.20
2019-03-06T03:53:56.302Z,5.20
2019-03-06T03:56:04.128Z,5.17
2019-03-06T03:58:11.107Z,5.18
2019-03-06T04:00:23.393Z,5.24
2019-03-06T04:02:30.584Z,5.23
2019-03-06T04:04:38.643Z,5.24
2019-03-06T04:06:45.917Z,5.23
2019-03-06T04:08:53.464Z,5.22
2019-03-06T04:11:01.223Z,5.20
2019-03-06T04:13:08.768Z,5.21
2019-03-06T04:15:17.789Z,5.20
2019-03-06T04:17:24.536Z,5.20
2019-03-06T04:19:31.595Z,5.20
2019-03-06T04:21:38.633Z,5.20
2019-03-06T04:23:46.345Z,5.19
2019-03-06T04:25:53.427Z,5.20
2019-03-06T04:28:00.540Z,5.18
2019-03-06T04:30:15.975Z,5.17
2019-03-06T04:32:22.740Z,5.17
2019-03-06T04:34:29.678Z,5.15
2019-03-06T04:36:36.577Z,5.16
2019-03-06T04:38:43.940Z,5.17
2019-03-06T04:40:51.111Z,5.26
2019-03-06T04:42:57.809Z,5.29
2019-03-06T04:45:06.037Z,5.25
2019-03-06T04:47:13.235Z,5.21
2019-03-06T04:49:20.288Z,5.19
2019-03-06T04:51:27.487Z,5.22
2019-03-06T04:53:36.128Z,5.13
2019-03-06T04:55:44.722Z,5.18
2019-03-06T04:57:52.051Z,5.16
2019-03-06T04:59:59.577Z,5.20
2019-03-06T05:02:08.556Z,5.08
2019-03-06T05:04:15.381Z,5.00
2019-03-06T05:06:21.901Z,4.94
2019-03-06T05:08:28.783Z,4.91
2019-03-06T05:10:35.852Z,4.90
2019-03-06T05:12:43.623Z,4.89
2019-03-06T05:14:50.558Z,4.89
2019-03-06T05:17:02.183Z,4.94
2019-03-06T05:19:11.266Z,4.92
2019-03-06T05:21:18.416Z,4.86
2019-03-06T05:23:25.399Z,4.93
2019-03-06T05:25:32.662Z,4.91
2019-03-06T05:27:39.786Z,4.84
2019-03-06T05:29:46.681Z,4.74
2019-03-06T05:32:26.625Z,5.01
2019-03-06T05:34:33.916Z,4.91
2019-03-06T05:37:21.697Z,4.91
2019-03-06T05:39:28.780Z,4.93
2019-03-06T05:41:36.231Z,4.88
2019-03-06T05:43:43.702Z,5.15
2019-03-06T05:45:50.802Z,5.20
2019-03-06T05:47:58.235Z,5.20
2019-03-06T05:50:06.988Z,5.20
2019-03-06T05:52:13.865Z,5.19
2019-03-06T05:54:21.429Z,5.03
2019-03-06T05:56:28.371Z,5.37
2019-03-06T05:58:35.683Z,5.24
2019-03-06T06:00:42.483Z,5.16
2019-03-06T06:02:49.366Z,5.23
2019-03-06T06:04:55.882Z,5.18
2019-03-06T06:07:02.927Z,5.22
2019-03-06T06:09:11.145Z,5.10
2019-03-06T06:11:18.899Z,5.02
2019-03-06T06:13:26.076Z,5.00
2019-03-06T06:15:32.905Z,4.95
2019-03-06T06:17:39.766Z,5.01
2019-03-06T06:19:46.489Z,5.01
2019-03-06T06:21:54.774Z,5.13
2019-03-06T06:24:03.926Z,5.00
2019-03-06T06:26:11.025Z,4.98
2019-03-06T06:28:19.415Z,5.05
2019-03-06T06:30:26.423Z,5.41
2019-03-06T06:32:33.476Z,5.37
2019-03-06T06:34:40.306Z,5.43
2019-03-06T06:36:47.505Z,5.53
2019-03-06T06:38:53.986Z,5.50
2019-03-06T06:41:01.351Z,5.70
2019-03-06T06:43:08.905Z,5.63
2019-03-06T06:45:19.113Z,5.46
2019-03-06T06:47:26.566Z,5.34
2019-03-06T06:49:33.436Z,5.28
2019-03-06T06:51:59.977Z,5.13
2019-03-06T06:54:29.049Z,5.07
2019-03-06T06:56:56.853Z,5.07
2019-03-06T06:59:16.625Z,5.12
2019-03-06T07:01:33.441Z,5.10
2019-03-06T07:04:32.813Z,5.09
2019-03-06T07:06:58.653Z,5.10
2019-03-06T07:09:07.166Z,5.12
2019-03-06T07:11:15.813Z,5.19
2019-03-06T07:13:30.216Z,5.22
2019-03-06T07:15:54.116Z,5.23
2019-03-06T07:18:12.896Z,5.24
2019-03-06T07:20:23.559Z,5.28
2019-03-06T07:22:35.215Z,5.26
2019-03-06T07:24:52.396Z,5.28
2019-03-06T07:27:08.396Z,5.33
2019-03-06T07:29:22.036Z,5.31
2019-03-06T07:31:40.904Z,5.36
2019-03-06T07:33:51.995Z,5.35
2019-03-06T07:36:06.463Z,5.39
2019-03-06T07:38:13.345Z,5.45
2019-03-06T07:40:23.076Z,5.50
2019-03-06T07:42:38.739Z,5.54
2019-03-06T07:45:28.406Z,5.52
2019-03-06T07:47:38.269Z,5.51
2019-03-06T07:49:48.226Z,5.49
2019-03-06T07:52:05.925Z,5.55
2019-03-06T07:54:28.163Z,5.52
2019-03-06T07:56:48.755Z,5.56
2019-03-06T07:58:57.533Z,5.62
2019-03-06T08:01:04.635Z,5.70
2019-03-06T08:03:11.878Z,5.79
2019-03-06T08:05:18.846Z,5.82
2019-03-06T08:07:25.776Z,5.89
2019-03-06T08:09:33.981Z,5.98
2019-03-06T08:11:42.795Z,6.05
2019-03-06T08:13:51.586Z,6.16
2019-03-06T08:16:03.195Z,6.17
2019-03-06T08:18:20.224Z,6.12
2019-03-06T08:20:27.263Z,6.18
2019-03-06T08:22:37.696Z,6.28
2019-03-06T08:24:46.523Z,6.33
2019-03-06T08:26:53.474Z,6.38
2019-03-06T08:29:00.767Z,6.45
2019-03-06T08:31:16.127Z,6.44
2019-03-06T08:33:22.946Z,6.47
2019-03-06T08:35:30.282Z,6.58
2019-03-06T08:37:37.976Z,6.69
2019-03-06T08:39:44.707Z,6.77
2019-03-06T08:41:52.064Z,6.77
2019-03-06T08:43:58.967Z,6.92
2019-03-06T08:46:17.866Z,6.88
2019-03-06T08:48:41.746Z,6.83
2019-03-06T08:51:05.443Z,6.80
2019-03-06T08:53:30.644Z,6.75
2019-03-06T08:55:39.306Z,6.75
2019-03-06T08:58:03.140Z,6.69
2019-03-06T09:00:20.016Z,6.72
2019-03-06T09:02:33.346Z,6.79
2019-03-06T09:04:58.353Z,6.77
2019-03-06T09:07:06.763Z,6.92
2019-03-06T09:09:26.556Z,6.97
2019-03-06T09:11:36.704Z,7.15
2019-03-06T09:14:03.857Z,7.29
2019-03-06T09:16:21.494Z,7.45
2019-03-06T09:18:46.487Z,7.62
2019-03-06T09:20:59.583Z,7.75
2019-03-06T09:23:24.455Z,7.73
2019-03-06T09:25:36.292Z,7.76
2019-03-06T09:27:46.337Z,7.84
2019-03-06T09:30:15.948Z,7.96
2019-03-06T09:32:21.874Z,7.93
2019-03-06T09:34:33.686Z,7.86
2019-03-06T09:36:52.326Z,7.91
2019-03-06T09:39:16.206Z,7.84
2019-03-06T09:41:24.464Z,7.88
2019-03-06T09:43:42.254Z,8.17
2019-03-06T09:46:08.476Z,8.13
2019-03-06T09:48:34.288Z,8.18
2019-03-06T09:50:46.296Z,8.10
2019-03-06T09:53:00.593Z,8.21
2019-03-06T09:55:12.116Z,8.32
2019-03-06T09:57:20.836Z,8.07
2019-03-06T09:59:30.256Z,7.98
2019-03-06T10:01:55.389Z,8.26
2019-03-06T10:04:10.033Z,8.19
2019-03-06T10:06:34.893Z,8.32
2019-03-06T10:08:46.301Z,8.28
2019-03-06T10:11:00.538Z,8.66
2019-03-06T10:13:11.817Z,8.66
2019-03-06T10:15:26.448Z,8.70
2019-03-06T10:17:41.897Z,8.55
2019-03-06T10:19:50.348Z,8.27
2019-03-06T10:21:59.141Z,8.20
2019-03-06T10:24:26.867Z,8.20
2019-03-06T10:26:34.088Z,8.01
2019-03-06T10:28:41.067Z,7.92
2019-03-06T10:30:48.310Z,7.77
2019-03-06T10:32:55.308Z,7.72
2019-03-06T10:35:03.649Z,7.92
2019-03-06T10:37:12.348Z,7.93
2019-03-06T10:39:19.268Z,8.13
2019-03-06T10:41:26.168Z,8.32
2019-03-06T10:43:34.238Z,8.56
2019-03-06T10:45:41.795Z,8.65
2019-03-06T10:47:49.195Z,8.77
2019-03-06T10:49:56.351Z,8.99
2019-03-06T10:52:03.628Z,8.99
2019-03-06T10:54:10.768Z,8.97
2019-03-06T10:56:17.961Z,9.14
2019-03-06T10:58:25.288Z,8.99
2019-03-06T11:00:35.083Z,9.12
2019-03-06T11:02:42.389Z,9.00
2019-03-06T11:04:54.144Z,9.21
2019-03-06T11:07:01.677Z,9.39
2019-03-06T11:09:11.322Z,9.35
2019-03-06T11:11:19.505Z,9.47
2019-03-06T11:13:26.474Z,9.55
2019-03-06T11:15:34.866Z,9.59
2019-03-06T11:17:42.385Z,9.66
2019-03-06T11:19:49.686Z,9.33
2019-03-06T11:21:56.776Z,9.18
2019-03-06T11:24:04.056Z,9.12
2019-03-06T11:26:11.235Z,9.35
2019-03-06T11:28:18.424Z,9.25
2019-03-06T11:30:41.712Z,9.20
2019-03-06T11:32:54.484Z,9.32
2019-03-06T11:34:59.169Z,9.28
2019-03-06T11:37:07.172Z,9.47
2019-03-06T11:39:14.895Z,9.61
2019-03-06T11:41:22.236Z,9.67
2019-03-06T11:43:29.572Z,9.91
2019-03-06T11:45:38.734Z,10.15
2019-03-06T11:47:45.883Z,10.27
2019-03-06T11:49:57.944Z,10.41
2019-03-06T11:52:06.548Z,10.23
2019-03-06T11:54:14.672Z,10.20
2019-03-06T11:56:24.181Z,10.11
2019-03-06T11:58:32.534Z,10.00
2019-03-06T12:00:46.435Z,9.93
2019-03-06T12:02:54.436Z,9.96
2019-03-06T12:05:02.196Z,10.24
2019-03-06T12:07:11.009Z,9.96
2019-03-06T12:09:29.957Z,9.97
2019-03-06T12:11:36.866Z,9.97
2019-03-06T12:13:45.522Z,9.86
2019-03-06T12:15:53.655Z,10.33
2019-03-06T12:18:00.997Z,10.46
2019-03-06T12:20:10.285Z,10.62
2019-03-06T12:22:17.563Z,10.75
2019-03-06T12:24:25.212Z,10.97
2019-03-06T12:26:32.855Z,10.93
2019-03-06T12:28:40.076Z,10.64
2019-03-06T12:30:47.193Z,10.84
2019-03-06T12:32:54.475Z,11.02
2019-03-06T12:35:02.356Z,10.99
2019-03-06T12:37:09.556Z,11.06
2019-03-06T12:39:19.093Z,10.96
2019-03-06T12:41:27.998Z,10.55
2019-03-06T12:43:35.102Z,10.32
2019-03-06T12:45:44.096Z,10.24
2019-03-06T12:47:58.365Z,10.44
2019-03-06T12:50:08.629Z,10.43
2019-03-06T12:52:15.863Z,10.56
2019-03-06T12:54:22.723Z,10.88
2019-03-06T12:56:31.645Z,11.19
2019-03-06T12:58:38.976Z,10.97
2019-03-06T13:00:45.975Z,11.09
2019-03-06T13:02:54.500Z,11.08
2019-03-06T13:05:01.243Z,11.06
2019-03-06T13:07:08.905Z,11.01
2019-03-06T13:09:22.037Z,11.05
2019-03-06T13:11:29.577Z,10.91
2019-03-06T13:13:38.406Z,10.86
2019-03-06T13:15:46.375Z,10.85
2019-03-06T13:17:53.854Z,10.76
2019-03-06T13:20:00.883Z,10.58
2019-03-06T13:22:11.374Z,10.58
2019-03-06T13:24:18.618Z,10.75
2019-03-06T13:26:25.432Z,11.05
2019-03-06T13:28:32.218Z,11.18
2019-03-06T13:30:39.418Z,11.38
2019-03-06T13:32:58.165Z,11.50
2019-03-06T13:35:07.856Z,11.53
2019-03-06T13:37:15.005Z,11.71
2019-03-06T13:39:21.886Z,11.68
2019-03-06T13:41:33.586Z,11.83
2019-03-06T13:43:41.094Z,11.68
2019-03-06T13:45:51.406Z,11.48
2019-03-06T13:47:58.658Z,11.29
2019-03-06T13:50:11.644Z,11.11
2019-03-06T13:52:19.498Z,10.98
2019-03-06T13:54:26.583Z,11.05
2019-03-06T13:56:38.475Z,11.14
2019-03-06T13:58:47.126Z,11.20
2019-03-06T14:00:55.032Z,11.05
2019-03-06T14:03:02.316Z,10.88
2019-03-06T14:05:10.357Z,10.86
2019-03-06T14:07:18.670Z,10.65
2019-03-06T14:09:26.749Z,10.79
2019-03-06T14:11:33.916Z,10.65
2019-03-06T14:13:41.550Z,10.57
2019-03-06T14:15:54.003Z,10.29
2019-03-06T14:17:59.392Z,10.39
2019-03-06T14:20:14.423Z,10.37
2019-03-06T14:22:21.691Z,10.36
2019-03-06T14:24:29.377Z,10.51
2019-03-06T14:26:37.079Z,10.49
2019-03-06T14:28:46.872Z,10.27
2019-03-06T14:30:54.680Z,10.15
2019-03-06T14:33:02.015Z,10.10
2019-03-06T14:35:09.671Z,10.13
2019-03-06T14:37:17.105Z,10.11
2019-03-06T14:39:29.065Z,10.16
2019-03-06T14:41:37.048Z,10.02
2019-03-06T14:43:44.428Z,10.03
2019-03-06T14:45:51.441Z,10.07
2019-03-06T14:47:58.609Z,9.95
2019-03-06T14:50:07.225Z,9.92
2019-03-06T14:52:14.640Z,9.91
2019-03-06T14:54:21.640Z,9.87
2019-03-06T14:56:28.856Z,9.84
2019-03-06T14:58:36.335Z,9.85
2019-03-06T15:00:43.874Z,9.93
2019-03-06T15:02:51.035Z,9.89
2019-03-06T15:04:58.742Z,9.86
2019-03-06T15:07:06.347Z,9.84
2019-03-06T15:09:28.290Z,9.81
2019-03-06T15:11:35.839Z,9.76
2019-03-06T15:13:44.507Z,9.69
2019-03-06T15:15:53.157Z,9.67
2019-03-06T15:18:00.344Z,9.60
2019-03-06T15:20:11.654Z,9.56
2019-03-06T15:22:18.962Z,9.49
2019-03-06T15:24:26.144Z,9.49
2019-03-06T15:26:33.678Z,9.45
2019-03-06T15:28:40.625Z,9.40
2019-03-06T15:30:47.746Z,9.40
2019-03-06T15:32:54.990Z,9.39
2019-03-06T15:35:02.391Z,9.35
2019-03-06T15:37:09.846Z,9.29
2019-03-06T15:39:29.462Z,9.24
2019-03-06T15:41:37.370Z,9.17
2019-03-06T15:43:44.763Z,9.11
2019-03-06T15:45:51.827Z,9.02
2019-03-06T15:47:59.577Z,8.94
2019-03-06T15:50:10.407Z,8.84
2019-03-06T15:52:18.574Z,8.76
2019-03-06T15:54:26.535Z,8.68
2019-03-06T15:56:34.074Z,8.61
2019-03-06T15:58:43.874Z,8.54
2019-03-06T16:00:52.142Z,8.45
2019-03-06T16:03:00.186Z,8.37
2019-03-06T16:05:11.149Z,8.30
2019-03-06T16:07:18.437Z,8.22
2019-03-06T16:09:25.640Z,8.16
2019-03-06T16:11:33.564Z,8.08
2019-03-06T16:13:41.341Z,7.97
2019-03-06T16:15:48.850Z,7.88
2019-03-06T16:17:59.672Z,7.81
2019-03-06T16:20:18.826Z,7.72
2019-03-06T16:22:25.703Z,7.66
2019-03-06T16:24:34.423Z,7.57
2019-03-06T16:26:42.121Z,7.51
2019-03-06T16:28:49.447Z,7.45
2019-03-06T16:30:56.732Z,7.40
2019-03-06T16:33:04.134Z,7.33
2019-03-06T16:35:11.672Z,7.29
2019-03-06T16:37:19.323Z,7.25
2019-03-06T16:39:27.222Z,7.19
2019-03-06T16:41:35.403Z,7.15
2019-03-06T16:43:43.087Z,7.09
2019-03-06T16:45:50.825Z,7.00
2019-03-06T16:47:58.084Z,6.96
2019-03-06T16:50:14.375Z,6.91
2019-03-06T16:52:19.214Z,6.92
2019-03-06T16:54:26.867Z,6.87
2019-03-06T16:56:35.753Z,6.80
2019-03-06T16:58:42.910Z,6.73
2019-03-06T17:00:52.297Z,6.69
2019-03-06T17:03:02.834Z,6.65
2019-03-06T17:05:11.484Z,6.59
2019-03-06T17:07:18.798Z,6.57
2019-03-06T17:09:26.156Z,6.54
2019-03-06T17:11:34.287Z,6.52
2019-03-06T17:13:41.957Z,6.47
2019-03-06T17:15:49.530Z,6.42
2019-03-06T17:17:57.427Z,6.41
2019-03-06T17:20:05.739Z,6.40
2019-03-06T17:22:13.147Z,6.35
2019-03-06T17:24:21.155Z,6.33
2019-03-06T17:26:28.995Z,6.31
2019-03-06T17:28:36.407Z,6.30
2019-03-06T17:30:44.011Z,6.32
2019-03-06T17:33:03.943Z,6.29
2019-03-06T17:35:11.477Z,6.29
2019-03-06T17:37:19.066Z,6.29
2019-03-06T17:39:26.574Z,6.29
2019-03-06T17:41:33.993Z,6.24
2019-03-06T17:43:41.377Z,6.19
2019-03-06T17:45:49.801Z,6.18
2019-03-06T17:47:57.698Z,6.16
2019-03-06T17:50:06.483Z,6.17
2019-03-06T17:52:14.220Z,6.21
2019-03-06T17:54:21.929Z,6.21
2019-03-06T17:56:31.326Z,6.23
2019-03-06T17:58:38.917Z,6.29
2019-03-06T18:00:47.978Z,6.34
2019-03-06T18:02:55.657Z,6.34
2019-03-06T18:05:03.217Z,6.35
2019-03-06T18:07:11.617Z,6.34
2019-03-06T18:09:19.285Z,6.34
2019-03-06T18:11:26.897Z,6.34
2019-03-06T18:13:34.197Z,6.33
2019-03-06T18:15:44.338Z,6.33
2019-03-06T18:17:51.238Z,6.32
2019-03-06T18:20:00.397Z,6.30
2019-03-06T18:22:09.084Z,6.31
2019-03-06T18:24:16.983Z,6.30
2019-03-06T18:26:24.594Z,6.28
2019-03-06T18:28:32.823Z,6.21
2019-03-06T18:30:40.664Z,6.19
2019-03-06T18:32:49.295Z,6.14
2019-03-06T18:34:56.554Z,6.11
2019-03-06T18:37:03.823Z,6.06
2019-03-06T18:39:12.851Z,6.07
2019-03-06T18:41:20.233Z,6.10
2019-03-06T18:43:27.907Z,6.08
2019-03-06T18:45:37.191Z,6.07
2019-03-06T18:47:44.553Z,6.05
2019-03-06T18:49:52.033Z,6.04
2019-03-06T18:51:59.451Z,6.03
2019-03-06T18:54:06.926Z,5.99
2019-03-06T18:56:14.428Z,5.99
2019-03-06T18:58:23.122Z,6.01
2019-03-06T19:00:33.751Z,6.00
2019-03-06T19:02:41.612Z,5.99
2019-03-06T19:04:50.495Z,5.99
2019-03-06T19:06:57.815Z,5.99
2019-03-06T19:09:07.539Z,6.01
2019-03-06T19:11:17.215Z,6.04
2019-03-06T19:13:24.977Z,6.07
2019-03-06T19:15:32.277Z,6.07
2019-03-06T19:17:39.856Z,6.07
2019-03-06T19:19:47.880Z,6.12
2019-03-06T19:21:55.970Z,6.14
2019-03-06T19:24:03.805Z,6.18
2019-03-06T19:26:11.266Z,6.17
2019-03-06T19:28:18.779Z,6.15
2019-03-06T19:30:27.495Z,6.15
2019-03-06T19:32:35.503Z,6.14
2019-03-06T19:34:44.206Z,6.16
2019-03-06T19:36:52.006Z,6.14
2019-03-06T19:38:59.948Z,6.10
2019-03-06T19:41:09.256Z,6.06
2019-03-06T19:43:17.838Z,6.00
2019-03-06T19:45:26.565Z,5.97
2019-03-06T19:47:34.429Z,5.94
2019-03-06T19:49:42.199Z,5.90
2019-03-06T19:51:52.428Z,5.87
2019-03-06T19:54:20.658Z,5.83
2019-03-06T19:56:29.039Z,5.81
2019-03-06T19:58:36.425Z,5.82
2019-03-06T20:00:45.228Z,5.87
2019-03-06T20:02:53.811Z,5.86
2019-03-06T20:05:01.232Z,5.84
2019-03-06T20:07:09.038Z,5.83
2019-03-06T20:09:27.621Z,5.84
2019-03-06T20:11:34.998Z,5.88
2019-03-06T20:13:42.778Z,5.88
2019-03-06T20:15:50.308Z,5.88
2019-03-06T20:17:59.199Z,5.88
2019-03-06T20:20:11.618Z,5.85
2019-03-06T20:22:22.766Z,5.82
2019-03-06T20:24:29.978Z,5.83
2019-03-06T20:26:37.971Z,5.79
2019-03-06T20:28:46.955Z,5.76
2019-03-06T20:30:54.674Z,5.74
2019-03-06T20:33:03.406Z,5.71
2019-03-06T20:35:11.006Z,5.68
2019-03-06T20:37:18.549Z,5.68
2019-03-06T20:39:26.428Z,5.67
2019-03-06T20:41:33.832Z,5.65
2019-03-06T20:44:04.273Z,5.64
2019-03-06T20:46:12.729Z,5.61
2019-03-06T20:48:20.592Z,5.58
2019-03-06T20:50:28.098Z,5.58
2019-03-06T20:52:36.099Z,5.57
2019-03-06T20:54:43.452Z,5.59
2019-03-06T20:56:50.861Z,5.56
2019-03-06T20:58:59.813Z,5.55
2019-03-06T21:01:08.238Z,5.52
2019-03-06T21:03:16.062Z,5.48
2019-03-06T21:05:23.809Z,5.48
2019-03-06T21:07:31.057Z,5.49
2019-03-06T21:09:38.474Z,5.48
2019-03-06T21:11:45.995Z,5.43
2019-03-06T21:13:53.442Z,5.43
2019-03-06T21:16:01.726Z,5.50
2019-03-06T21:18:11.184Z,5.50
2019-03-06T21:20:26.739Z,5.46
2019-03-06T21:22:34.145Z,5.48
2019-03-06T21:24:41.786Z,5.45
2019-03-06T21:26:49.264Z,5.41
2019-03-06T21:28:56.987Z,5.35
2019-03-06T21:31:04.438Z,5.34
2019-03-06T21:33:12.074Z,5.32
2019-03-06T21:35:19.632Z,5.29
2019-03-06T21:37:27.074Z,5.27
2019-03-06T21:39:46.442Z,5.21
2019-03-06T21:42:14.205Z,5.19
2019-03-06T21:44:21.897Z,5.17
2019-03-06T21:46:30.000Z,5.16
2019-03-06T21:48:37.475Z,5.17
2019-03-06T21:50:44.916Z,5.12
2019-03-06T21:52:52.488Z,5.14
2019-03-06T21:55:02.664Z,5.11
2019-03-06T21:57:15.493Z,5.11
2019-03-06T21:59:23.588Z,5.10
2019-03-06T22:01:31.028Z,5.10
2019-03-06T22:03:38.562Z,5.11
2019-03-06T22:05:45.740Z,5.14
2019-03-06T22:07:53.331Z,5.14
2019-03-06T22:10:00.585Z,5.10
2019-03-06T22:12:09.422Z,5.04
2019-03-06T22:14:16.869Z,5.00
2019-03-06T22:16:25.061Z,5.01
2019-03-06T22:18:33.043Z,5.04
2019-03-06T22:20:40.317Z,5.03
2019-03-06T22:22:47.359Z,5.00
2019-03-06T22:24:55.216Z,4.99
2019-03-06T22:27:02.433Z,4.98
2019-03-06T22:29:12.627Z,4.96
2019-03-06T22:31:20.856Z,4.99
2019-03-06T22:33:27.680Z,5.00
2019-03-06T22:35:34.556Z,5.00
2019-03-06T22:37:42.255Z,4.95
2019-03-06T22:39:50.839Z,4.95
2019-03-06T22:41:57.933Z,4.95
2019-03-06T22:44:04.981Z,4.95
2019-03-06T22:46:12.279Z,4.93
2019-03-06T22:48:19.334Z,4.96
2019-03-06T22:50:26.190Z,4.99
2019-03-06T22:52:33.384Z,5.00
2019-03-06T22:54:40.489Z,4.98
2019-03-06T22:56:47.510Z,4.99
2019-03-06T22:58:54.623Z,4.96
2019-03-06T23:01:06.048Z,4.94
2019-03-06T23:03:15.267Z,4.94
2019-03-06T23:05:22.317Z,4.96
2019-03-06T23:07:29.273Z,4.95
2019-03-06T23:09:37.165Z,4.94
2019-03-06T23:11:44.891Z,4.99
2019-03-06T23:13:51.930Z,4.98
2019-03-06T23:15:59.218Z,4.98
2019-03-06T23:18:06.791Z,4.98
2019-03-06T23:20:15.552Z,4.97
2019-03-06T23:22:23.604Z,5.01
2019-03-06T23:24:30.873Z,5.00
2019-03-06T23:26:42.701Z,4.97
2019-03-06T23:28:46.407Z,4.99
2019-03-06T23:30:53.516Z,4.96
2019-03-06T23:33:00.830Z,4.94
